sensor_id;sensor_type;location;lat;lon;timestamp;pressure;altitude;pressure_sealevel;temperature;humidity
56831;BME280;42713;42.676;23.352;2022-11-25T00:01:05;94520.25;;;5.14;68.55
56831;BME280;42713;42.676;23.352;2022-11-25T00:03:31;94533.88;;;5.09;68.89
56831;BME280;42713;42.676;23.352;2022-11-25T00:08:36;94569.41;;;5.09;68.96
56831;BME280;42713;42.676;23.352;2022-11-25T00:11:02;94553.25;;;5.07;69.19
56831;BME280;42713;42.676;23.352;2022-11-25T00:13:29;94559.88;;;5.03;69.06
56831;BME280;42713;42.676;23.352;2022-11-25T00:15:55;94545.31;;;5.02;69.12
56831;BME280;42713;42.676;23.352;2022-11-25T00:18:20;94579.22;;;5.07;68.60
56831;BME280;42713;42.676;23.352;2022-11-25T00:20:45;94555.88;;;5.00;68.62
56831;BME280;42713;42.676;23.352;2022-11-25T00:23:11;94569.69;;;5.01;68.46
56831;BME280;42713;42.676;23.352;2022-11-25T00:25:36;94555.88;;;5.00;68.36
56831;BME280;42713;42.676;23.352;2022-11-25T00:28:02;94555.88;;;5.00;68.52
56831;BME280;42713;42.676;23.352;2022-11-25T00:30:27;94566.13;;;4.95;68.58
56831;BME280;42713;42.676;23.352;2022-11-25T00:32:53;94555.53;;;4.96;68.48
56831;BME280;42713;42.676;23.352;2022-11-25T00:35:19;94556.91;;;4.99;68.85
56831;BME280;42713;42.676;23.352;2022-11-25T00:37:44;94564.53;;;4.94;68.86
56831;BME280;42713;42.676;23.352;2022-11-25T00:40:10;94575.72;;;4.94;68.73
56831;BME280;42713;42.676;23.352;2022-11-25T00:42:35;94564.78;;;4.86;69.35
56831;BME280;42713;42.676;23.352;2022-11-25T00:45:19;94558.00;;;4.85;70.01
56831;BME280;42713;42.676;23.352;2022-11-25T00:47:45;94559.75;;;4.91;70.08
56831;BME280;42713;42.676;23.352;2022-11-25T00:50:10;94564.53;;;4.94;70.36
56831;BME280;42713;42.676;23.352;2022-11-25T00:52:36;94583.50;;;4.94;69.96
56831;BME280;42713;42.676;23.352;2022-11-25T00:55:02;94577.72;;;4.92;69.82
56831;BME280;42713;42.676;23.352;2022-11-25T00:57:28;94558.19;;;4.90;70.09
56831;BME280;42713;42.676;23.352;2022-11-25T00:59:53;94595.09;;;4.92;70.53
56831;BME280;42713;42.676;23.352;2022-11-25T01:02:18;94568.13;;;4.93;70.44
56831;BME280;42713;42.676;23.352;2022-11-25T01:04:45;94561.34;;;4.92;70.47
56831;BME280;42713;42.676;23.352;2022-11-25T01:07:10;94572.53;;;4.92;69.83
56831;BME280;42713;42.676;23.352;2022-11-25T01:09:36;94563.91;;;4.98;69.63
56831;BME280;42713;42.676;23.352;2022-11-25T01:12:02;94579.25;;;5.00;69.89
56831;BME280;42713;42.676;23.352;2022-11-25T01:14:28;94577.06;;;5.04;69.55
56831;BME280;42713;42.676;23.352;2022-11-25T01:16:53;94559.53;;;4.99;69.61
56831;BME280;42713;42.676;23.352;2022-11-25T01:19:19;94552.66;;;5.05;69.11
56831;BME280;42713;42.676;23.352;2022-11-25T01:21:45;94573.66;;;5.03;69.76
56831;BME280;42713;42.676;23.352;2022-11-25T01:24:13;94585.22;;;5.07;69.19
56831;BME280;42713;42.676;23.352;2022-11-25T01:26:39;94566.28;;;5.00;69.53
56831;BME280;42713;42.676;23.352;2022-11-25T01:29:09;94589.84;;;4.98;69.35
56831;BME280;42713;42.676;23.352;2022-11-25T01:31:36;94578.72;;;4.91;69.76
56831;BME280;42713;42.676;23.352;2022-11-25T01:34:05;94559.75;;;4.91;69.54
56831;BME280;42713;42.676;23.352;2022-11-25T01:36:31;94562.75;;;4.94;69.58
56831;BME280;42713;42.676;23.352;2022-11-25T01:38:58;94581.53;;;4.90;70.10
56831;BME280;42713;42.676;23.352;2022-11-25T01:41:26;94572.88;;;5.03;69.48
56831;BME280;42713;42.676;23.352;2022-11-25T01:44:28;94555.09;;;4.99;69.60
56831;BME280;42713;42.676;23.352;2022-11-25T01:49:48;94557.66;;;5.06;68.15
56831;BME280;42713;42.676;23.352;2022-11-25T01:52:21;94541.22;;;5.12;68.59
56831;BME280;42713;42.676;23.352;2022-11-25T01:54:59;94535.03;;;5.13;68.18
56831;BME280;42713;42.676;23.352;2022-11-25T01:57:42;94538.25;;;5.09;67.75
56831;BME280;42713;42.676;23.352;2022-11-25T02:00:09;94529.69;;;5.08;68.25
56831;BME280;42713;42.676;23.352;2022-11-25T02:02:34;94531.84;;;5.11;67.67
56831;BME280;42713;42.676;23.352;2022-11-25T02:05:03;94528.41;;;5.18;67.05
56831;BME280;42713;42.676;23.352;2022-11-25T02:07:37;94537.94;;;5.24;67.06
56831;BME280;42713;42.676;23.352;2022-11-25T02:10:06;94543.69;;;5.33;67.04
56831;BME280;42713;42.676;23.352;2022-11-25T02:12:37;94553.69;;;5.29;66.74
56831;BME280;42713;42.676;23.352;2022-11-25T02:15:05;94551.09;;;5.29;66.61
56831;BME280;42713;42.676;23.352;2022-11-25T02:17:31;94547.31;;;5.25;66.53
56831;BME280;42713;42.676;23.352;2022-11-25T02:20:03;94562.91;;;5.25;65.80
56831;BME280;42713;42.676;23.352;2022-11-25T02:25:12;94552.53;;;5.25;66.12
56831;BME280;42713;42.676;23.352;2022-11-25T02:27:38;94554.69;;;5.28;65.63
56831;BME280;42713;42.676;23.352;2022-11-25T02:30:04;94589.25;;;5.28;66.08
56831;BME280;42713;42.676;23.352;2022-11-25T02:32:30;94556.91;;;5.24;65.81
56831;BME280;42713;42.676;23.352;2022-11-25T02:34:55;94566.28;;;5.25;65.19
56831;BME280;42713;42.676;23.352;2022-11-25T02:37:22;94562.91;;;5.25;65.88
56831;BME280;42713;42.676;23.352;2022-11-25T02:39:49;94564.31;;;5.21;65.87
56831;BME280;42713;42.676;23.352;2022-11-25T02:42:17;94561.16;;;5.19;65.26
56831;BME280;42713;42.676;23.352;2022-11-25T02:44:44;94571.75;;;5.17;64.82
56831;BME280;42713;42.676;23.352;2022-11-25T02:47:11;94559.22;;;5.14;64.55
56831;BME280;42713;42.676;23.352;2022-11-25T02:49:36;94605.72;;;5.16;64.49
56831;BME280;42713;42.676;23.352;2022-11-25T02:52:02;94561.00;;;5.13;65.19
56831;BME280;42713;42.676;23.352;2022-11-25T02:54:27;94577.22;;;5.09;65.25
56831;BME280;42713;42.676;23.352;2022-11-25T02:56:53;94568.41;;;5.10;64.81
56831;BME280;42713;42.676;23.352;2022-11-25T02:59:18;94560.34;;;5.18;64.86
56831;BME280;42713;42.676;23.352;2022-11-25T03:01:43;94564.91;;;5.23;65.22
56831;BME280;42713;42.676;23.352;2022-11-25T03:04:09;94590.28;;;5.21;64.79
56831;BME280;42713;42.676;23.352;2022-11-25T03:06:35;94573.28;;;5.25;65.13
56831;BME280;42713;42.676;23.352;2022-11-25T03:09:00;94569.88;;;5.24;65.01
56831;BME280;42713;42.676;23.352;2022-11-25T03:11:26;94590.38;;;5.14;65.87
56831;BME280;42713;42.676;23.352;2022-11-25T03:14:11;94574.84;;;5.07;66.74
56831;BME280;42713;42.676;23.352;2022-11-25T03:16:37;94566.81;;;5.09;66.79
56831;BME280;42713;42.676;23.352;2022-11-25T03:19:03;94568.63;;;5.08;66.99
56831;BME280;42713;42.676;23.352;2022-11-25T03:21:28;94569.47;;;5.02;66.82
56831;BME280;42713;42.676;23.352;2022-11-25T03:23:54;94567.09;;;5.01;67.20
56831;BME280;42713;42.676;23.352;2022-11-25T03:26:19;94586.84;;;5.02;67.16
56831;BME280;42713;42.676;23.352;2022-11-25T03:28:45;94569.63;;;5.07;67.01
56831;BME280;42713;42.676;23.352;2022-11-25T03:31:11;94632.53;;;5.09;67.37
56831;BME280;42713;42.676;23.352;2022-11-25T03:33:36;94603.78;;;5.04;67.92
56831;BME280;42713;42.676;23.352;2022-11-25T03:36:02;94574.50;;;4.97;68.28
56831;BME280;42713;42.676;23.352;2022-11-25T03:38:27;94605.81;;;5.02;68.39
56831;BME280;42713;42.676;23.352;2022-11-25T03:40:52;94591.03;;;5.03;68.24
56831;BME280;42713;42.676;23.352;2022-11-25T03:43:18;94595.22;;;5.04;69.20
56831;BME280;42713;42.676;23.352;2022-11-25T03:45:47;94600.81;;;5.01;69.46
56831;BME280;42713;42.676;23.352;2022-11-25T03:48:13;94612.63;;;4.96;69.32
56831;BME280;42713;42.676;23.352;2022-11-25T03:50:38;94623.00;;;4.96;69.81
56831;BME280;42713;42.676;23.352;2022-11-25T03:53:04;94611.84;;;4.96;70.28
56831;BME280;42713;42.676;23.352;2022-11-25T03:55:29;94603.50;;;4.87;70.48
56831;BME280;42713;42.676;23.352;2022-11-25T03:57:54;94614.66;;;4.94;70.84
56831;BME280;42713;42.676;23.352;2022-11-25T04:00:20;94615.81;;;4.98;70.66
56831;BME280;42713;42.676;23.352;2022-11-25T04:02:45;94622.03;;;4.91;70.38
56831;BME280;42713;42.676;23.352;2022-11-25T04:05:10;94633.81;;;4.93;70.43
56831;BME280;42713;42.676;23.352;2022-11-25T04:07:36;94636.44;;;4.87;71.08
56831;BME280;42713;42.676;23.352;2022-11-25T04:10:02;94627.06;;;4.86;71.60
56831;BME280;42713;42.676;23.352;2022-11-25T04:12:27;94631.88;;;4.82;71.22
56831;BME280;42713;42.676;23.352;2022-11-25T04:15:12;94628.91;;;4.78;71.56
56831;BME280;42713;42.676;23.352;2022-11-25T04:17:38;94637.09;;;4.75;72.08
56831;BME280;42713;42.676;23.352;2022-11-25T04:20:04;94630.50;;;4.79;71.64
56831;BME280;42713;42.676;23.352;2022-11-25T04:22:30;94641.06;;;4.78;71.30
56831;BME280;42713;42.676;23.352;2022-11-25T04:24:55;94637.47;;;4.79;71.44
56831;BME280;42713;42.676;23.352;2022-11-25T04:27:21;94645.88;;;4.74;71.32
56831;BME280;42713;42.676;23.352;2022-11-25T04:29:46;94645.03;;;4.80;71.32
56831;BME280;42713;42.676;23.352;2022-11-25T04:32:12;94644.25;;;4.80;71.60
56831;BME280;42713;42.676;23.352;2022-11-25T04:34:37;94653.44;;;4.76;71.22
56831;BME280;42713;42.676;23.352;2022-11-25T04:37:03;94657.84;;;4.75;71.64
56831;BME280;42713;42.676;23.352;2022-11-25T04:39:28;94668.63;;;4.72;71.55
56831;BME280;42713;42.676;23.352;2022-11-25T04:41:53;94673.28;;;4.63;72.00
56831;BME280;42713;42.676;23.352;2022-11-25T04:44:39;94666.50;;;4.62;71.76
56831;BME280;42713;42.676;23.352;2022-11-25T04:47:04;94671.94;;;4.54;72.35
56831;BME280;42713;42.676;23.352;2022-11-25T04:49:30;94670.31;;;4.60;72.04
56831;BME280;42713;42.676;23.352;2022-11-25T04:51:55;94664.91;;;4.61;72.22
56831;BME280;42713;42.676;23.352;2022-11-25T04:54:20;94673.66;;;4.67;71.85
56831;BME280;42713;42.676;23.352;2022-11-25T04:56:46;94672.44;;;4.70;71.91
56831;BME280;42713;42.676;23.352;2022-11-25T04:59:11;94685.81;;;4.66;71.69
56831;BME280;42713;42.676;23.352;2022-11-25T05:01:55;94682.22;;;4.67;71.49
56831;BME280;42713;42.676;23.352;2022-11-25T05:04:20;94701.22;;;4.61;71.65
56831;BME280;42713;42.676;23.352;2022-11-25T05:06:46;94686.66;;;4.60;71.72
56831;BME280;42713;42.676;23.352;2022-11-25T05:09:11;94700.00;;;4.64;71.06
56831;BME280;42713;42.676;23.352;2022-11-25T05:11:37;94705.59;;;4.67;71.07
56831;BME280;42713;42.676;23.352;2022-11-25T05:14:02;94721.16;;;4.67;71.10
56831;BME280;42713;42.676;23.352;2022-11-25T05:16:28;94717.38;;;4.70;70.92
56831;BME280;42713;42.676;23.352;2022-11-25T05:18:56;94727.31;;;4.73;70.91
56831;BME280;42713;42.676;23.352;2022-11-25T05:21:22;94715.19;;;4.67;70.42
56831;BME280;42713;42.676;23.352;2022-11-25T05:23:47;94717.97;;;4.65;70.39
56831;BME280;42713;42.676;23.352;2022-11-25T05:26:13;94729.75;;;4.61;70.79
56831;BME280;42713;42.676;23.352;2022-11-25T05:28:38;94724.97;;;4.65;70.29
56831;BME280;42713;42.676;23.352;2022-11-25T05:31:04;94729.75;;;4.68;70.38
56831;BME280;42713;42.676;23.352;2022-11-25T05:33:30;94744.09;;;4.71;69.38
56831;BME280;42713;42.676;23.352;2022-11-25T05:35:58;94739.31;;;4.67;69.87
56831;BME280;42713;42.676;23.352;2022-11-25T05:38:24;94737.31;;;4.70;69.42
56831;BME280;42713;42.676;23.352;2022-11-25T05:40:50;94751.66;;;4.72;69.23
56831;BME280;42713;42.676;23.352;2022-11-25T05:43:15;94782.03;;;4.72;69.48
56831;BME280;42713;42.676;23.352;2022-11-25T05:45:41;94793.38;;;4.77;69.46
56831;BME280;42713;42.676;23.352;2022-11-25T05:48:06;94757.47;;;4.74;69.47
56831;BME280;42713;42.676;23.352;2022-11-25T05:50:31;94766.84;;;4.75;68.65
56831;BME280;42713;42.676;23.352;2022-11-25T05:52:57;94760.25;;;4.73;68.72
56831;BME280;42713;42.676;23.352;2022-11-25T05:55:22;94758.06;;;4.76;68.59
56831;BME280;42713;42.676;23.352;2022-11-25T05:57:48;94757.66;;;4.79;68.50
56831;BME280;42713;42.676;23.352;2022-11-25T06:00:13;94773.78;;;4.81;68.17
56831;BME280;42713;42.676;23.352;2022-11-25T06:02:39;94776.38;;;4.81;68.22
56831;BME280;42713;42.676;23.352;2022-11-25T06:05:05;94798.13;;;4.87;67.69
56831;BME280;42713;42.676;23.352;2022-11-25T06:07:30;94766.81;;;4.89;67.14
56831;BME280;42713;42.676;23.352;2022-11-25T06:09:55;94803.72;;;4.91;66.77
56831;BME280;42713;42.676;23.352;2022-11-25T06:12:21;94784.34;;;4.93;67.05
56831;BME280;42713;42.676;23.352;2022-11-25T06:14:47;94791.16;;;4.94;66.54
56831;BME280;42713;42.676;23.352;2022-11-25T06:17:12;94798.31;;;4.99;67.64
56831;BME280;42713;42.676;23.352;2022-11-25T06:19:37;94796.50;;;4.99;66.74
56831;BME280;42713;42.676;23.352;2022-11-25T06:22:03;94832.44;;;5.03;66.47
56831;BME280;42713;42.676;23.352;2022-11-25T06:24:28;94797.28;;;5.07;66.82
56831;BME280;42713;42.676;23.352;2022-11-25T06:26:54;94807.25;;;5.10;66.26
56831;BME280;42713;42.676;23.352;2022-11-25T06:29:20;94796.66;;;5.11;66.22
56831;BME280;42713;42.676;23.352;2022-11-25T06:31:48;94808.09;;;5.04;66.33
56831;BME280;42713;42.676;23.352;2022-11-25T06:34:13;94857.97;;;5.06;65.91
56831;BME280;42713;42.676;23.352;2022-11-25T06:36:38;94841.00;;;5.10;65.76
56831;BME280;42713;42.676;23.352;2022-11-25T06:39:04;94824.22;;;5.12;65.71
56831;BME280;42713;42.676;23.352;2022-11-25T06:41:29;94815.44;;;5.07;65.83
56831;BME280;42713;42.676;23.352;2022-11-25T06:43:55;94852.78;;;5.06;65.42
56831;BME280;42713;42.676;23.352;2022-11-25T06:46:20;94868.41;;;4.99;65.57
56831;BME280;42713;42.676;23.352;2022-11-25T06:48:46;94855.81;;;5.03;65.41
56831;BME280;42713;42.676;23.352;2022-11-25T06:51:13;94848.19;;;5.08;65.32
56831;BME280;42713;42.676;23.352;2022-11-25T06:53:40;94841.22;;;5.08;65.77
56831;BME280;42713;42.676;23.352;2022-11-25T06:58:35;94868.13;;;5.21;67.17
56831;BME280;42713;42.676;23.352;2022-11-25T07:03:40;94854.94;;;5.29;66.30
56831;BME280;42713;42.676;23.352;2022-11-25T07:06:06;94855.28;;;5.39;65.15
56831;BME280;42713;42.676;23.352;2022-11-25T07:08:32;94861.69;;;5.37;65.18
56831;BME280;42713;42.676;23.352;2022-11-25T07:11:05;94859.53;;;5.34;65.55
56831;BME280;42713;42.676;23.352;2022-11-25T07:13:31;94864.72;;;5.34;65.55
56831;BME280;42713;42.676;23.352;2022-11-25T07:16:03;94857.72;;;5.34;65.18
56831;BME280;42713;42.676;23.352;2022-11-25T07:18:30;94882.09;;;5.33;64.62
56831;BME280;42713;42.676;23.352;2022-11-25T07:21:01;94876.50;;;5.23;65.02
56831;BME280;42713;42.676;23.352;2022-11-25T07:23:26;94872.56;;;5.13;65.14
56831;BME280;42713;42.676;23.352;2022-11-25T07:25:52;94895.91;;;5.20;65.55
56831;BME280;42713;42.676;23.352;2022-11-25T07:28:17;94867.50;;;5.25;65.09
56831;BME280;42713;42.676;23.352;2022-11-25T07:30:43;94857.31;;;5.30;65.22
56831;BME280;42713;42.676;23.352;2022-11-25T07:33:08;94889.88;;;5.26;64.60
56831;BME280;42713;42.676;23.352;2022-11-25T07:35:33;94875.31;;;5.25;65.54
56831;BME280;42713;42.676;23.352;2022-11-25T07:37:59;94870.94;;;5.26;65.20
56831;BME280;42713;42.676;23.352;2022-11-25T07:40:24;94864.31;;;5.30;65.21
56831;BME280;42713;42.676;23.352;2022-11-25T07:42:50;94874.31;;;5.26;65.05
56831;BME280;42713;42.676;23.352;2022-11-25T07:45:15;94879.31;;;5.28;64.99
56831;BME280;42713;42.676;23.352;2022-11-25T07:47:41;94893.69;;;5.30;64.76
56831;BME280;42713;42.676;23.352;2022-11-25T07:50:07;94870.09;;;5.25;64.99
56831;BME280;42713;42.676;23.352;2022-11-25T07:52:32;94880.47;;;5.39;65.79
56831;BME280;42713;42.676;23.352;2022-11-25T07:54:58;94883.03;;;5.52;65.22
56831;BME280;42713;42.676;23.352;2022-11-25T07:57:23;94882.56;;;5.62;64.20
56831;BME280;42713;42.676;23.352;2022-11-25T07:59:48;94913.13;;;5.67;63.37
56831;BME280;42713;42.676;23.352;2022-11-25T08:02:14;94897.78;;;5.58;63.82
56831;BME280;42713;42.676;23.352;2022-11-25T08:04:39;94908.00;;;5.53;63.72
56831;BME280;42713;42.676;23.352;2022-11-25T08:07:05;94888.63;;;5.49;63.91
56831;BME280;42713;42.676;23.352;2022-11-25T08:09:30;94894.34;;;5.65;65.87
56831;BME280;42713;42.676;23.352;2022-11-25T08:11:56;94890.13;;;5.70;66.89
56831;BME280;42713;42.676;23.352;2022-11-25T08:14:22;94902.97;;;5.65;66.31
56831;BME280;42713;42.676;23.352;2022-11-25T08:16:47;94898.38;;;5.60;65.48
56831;BME280;42713;42.676;23.352;2022-11-25T08:19:14;94920.34;;;5.65;66.08
56831;BME280;42713;42.676;23.352;2022-11-25T08:21:40;94894.41;;;5.58;67.34
56831;BME280;42713;42.676;23.352;2022-11-25T08:24:06;94884.00;;;5.58;65.23
56831;BME280;42713;42.676;23.352;2022-11-25T08:26:34;94930.97;;;5.56;66.31
56831;BME280;42713;42.676;23.352;2022-11-25T08:29:04;94902.81;;;5.53;67.20
56831;BME280;42713;42.676;23.352;2022-11-25T08:31:35;94907.19;;;5.53;65.63
56831;BME280;42713;42.676;23.352;2022-11-25T08:34:03;94918.19;;;5.48;66.89
56831;BME280;42713;42.676;23.352;2022-11-25T08:36:29;94916.22;;;5.43;66.23
56831;BME280;42713;42.676;23.352;2022-11-25T08:38:56;94908.81;;;5.47;67.51
56831;BME280;42713;42.676;23.352;2022-11-25T08:41:26;94903.22;;;5.50;66.88
56831;BME280;42713;42.676;23.352;2022-11-25T08:43:53;94909.56;;;5.54;66.79
56831;BME280;42713;42.676;23.352;2022-11-25T08:46:26;94911.19;;;5.55;67.31
56831;BME280;42713;42.676;23.352;2022-11-25T08:48:52;94935.75;;;5.59;65.88
56831;BME280;42713;42.676;23.352;2022-11-25T08:51:21;94900.22;;;5.53;67.33
56831;BME280;42713;42.676;23.352;2022-11-25T08:53:48;94902.34;;;5.63;67.08
56831;BME280;42713;42.676;23.352;2022-11-25T08:56:15;94900.34;;;5.72;65.25
56831;BME280;42713;42.676;23.352;2022-11-25T08:58:41;94904.34;;;5.68;66.27
56831;BME280;42713;42.676;23.352;2022-11-25T09:01:07;94898.13;;;5.69;66.42
56831;BME280;42713;42.676;23.352;2022-11-25T09:03:34;94893.53;;;5.71;66.32
56831;BME280;42713;42.676;23.352;2022-11-25T09:06:02;94912.50;;;5.78;66.66
56831;BME280;42713;42.676;23.352;2022-11-25T09:08:27;94909.09;;;5.78;66.02
56831;BME280;42713;42.676;23.352;2022-11-25T09:10:54;94901.88;;;5.80;65.89
56831;BME280;42713;42.676;23.352;2022-11-25T09:13:20;94892.94;;;5.69;66.45
56831;BME280;42713;42.676;23.352;2022-11-25T09:15:45;94896.53;;;5.74;66.13
56831;BME280;42713;42.676;23.352;2022-11-25T09:18:11;94922.28;;;5.76;64.79
56831;BME280;42713;42.676;23.352;2022-11-25T09:20:38;94917.69;;;5.78;66.47
56831;BME280;42713;42.676;23.352;2022-11-25T09:23:05;94897.06;;;5.83;67.40
56831;BME280;42713;42.676;23.352;2022-11-25T09:25:32;94899.81;;;5.95;68.04
56831;BME280;42713;42.676;23.352;2022-11-25T09:27:57;94916.97;;;6.10;66.40
56831;BME280;42713;42.676;23.352;2022-11-25T09:30:24;94914.94;;;6.12;65.44
56831;BME280;42713;42.676;23.352;2022-11-25T09:32:51;94907.72;;;6.20;66.35
56831;BME280;42713;42.676;23.352;2022-11-25T09:35:18;94915.50;;;6.20;64.27
56831;BME280;42713;42.676;23.352;2022-11-25T09:37:43;94914.91;;;6.18;64.10
56831;BME280;42713;42.676;23.352;2022-11-25T09:40:35;94916.75;;;6.11;64.27
56831;BME280;42713;42.676;23.352;2022-11-25T09:43:17;94927.34;;;6.10;63.83
56831;BME280;42713;42.676;23.352;2022-11-25T09:52:51;94912.81;;;5.95;64.55
56831;BME280;42713;42.676;23.352;2022-11-25T09:55:23;94924.78;;;6.03;63.91
56831;BME280;42713;42.676;23.352;2022-11-25T10:00:17;94940.41;;;5.96;64.53
56831;BME280;42713;42.676;23.352;2022-11-25T10:05:22;94922.00;;;6.04;64.50
56831;BME280;42713;42.676;23.352;2022-11-25T10:07:52;94910.94;;;6.16;64.52
56831;BME280;42713;42.676;23.352;2022-11-25T10:10:28;94911.91;;;6.21;62.27
56831;BME280;42713;42.676;23.352;2022-11-25T10:12:57;94912.53;;;6.17;62.80
56831;BME280;42713;42.676;23.352;2022-11-25T10:15:29;94908.56;;;6.07;63.47
56831;BME280;42713;42.676;23.352;2022-11-25T10:18:02;94928.31;;;6.15;63.74
56831;BME280;42713;42.676;23.352;2022-11-25T10:20:37;94916.88;;;6.23;63.31
56831;BME280;42713;42.676;23.352;2022-11-25T10:23:08;94934.47;;;6.28;62.17
56831;BME280;42713;42.676;23.352;2022-11-25T10:25:36;94931.22;;;6.32;63.11
56831;BME280;42713;42.676;23.352;2022-11-25T10:28:11;94916.22;;;6.34;62.39
56831;BME280;42713;42.676;23.352;2022-11-25T10:33:19;94900.09;;;6.51;61.86
56831;BME280;42713;42.676;23.352;2022-11-25T10:35:52;94910.75;;;6.43;61.84
56831;BME280;42713;42.676;23.352;2022-11-25T10:40:54;94928.63;;;6.32;60.40
56831;BME280;42713;42.676;23.352;2022-11-25T10:43:20;94918.00;;;6.34;61.40
56831;BME280;42713;42.676;23.352;2022-11-25T10:46:13;94891.84;;;6.29;61.48
56831;BME280;42713;42.676;23.352;2022-11-25T10:54:12;94904.81;;;6.35;60.42
56831;BME280;42713;42.676;23.352;2022-11-25T10:56:51;94910.81;;;6.36;60.26
56831;BME280;42713;42.676;23.352;2022-11-25T10:59:38;94953.44;;;6.35;60.67
56831;BME280;42713;42.676;23.352;2022-11-25T11:04:58;94945.63;;;6.35;59.79
56831;BME280;42713;42.676;23.352;2022-11-25T11:07:27;94941.38;;;6.41;60.12
56831;BME280;42713;42.676;23.352;2022-11-25T11:09:53;94922.03;;;6.36;61.03
56831;BME280;42713;42.676;23.352;2022-11-25T11:12:23;94925.63;;;6.35;60.25
56831;BME280;42713;42.676;23.352;2022-11-25T11:14:51;94952.19;;;6.37;60.17
56831;BME280;42713;42.676;23.352;2022-11-25T11:17:28;94911.59;;;6.36;60.31
56831;BME280;42713;42.676;23.352;2022-11-25T11:20:14;94912.44;;;6.30;60.80
56831;BME280;42713;42.676;23.352;2022-11-25T11:23:06;94980.03;;;6.37;61.06
56831;BME280;42713;42.676;23.352;2022-11-25T11:25:36;94975.25;;;6.34;61.27
56831;BME280;42713;42.676;23.352;2022-11-25T11:28:02;94928.25;;;6.29;61.20
56831;BME280;42713;42.676;23.352;2022-11-25T11:31:00;94928.44;;;6.27;61.64
56831;BME280;42713;42.676;23.352;2022-11-25T11:36:16;94941.00;;;6.37;62.01
56831;BME280;42713;42.676;23.352;2022-11-25T11:38:54;94939.41;;;6.36;62.10
56831;BME280;42713;42.676;23.352;2022-11-25T11:44:08;94946.63;;;6.34;62.44
56831;BME280;42713;42.676;23.352;2022-11-25T11:47:07;94945.75;;;6.47;62.48
56831;BME280;42713;42.676;23.352;2022-11-25T11:49:46;94935.56;;;6.45;61.55
56831;BME280;42713;42.676;23.352;2022-11-25T11:55:19;94940.94;;;6.50;61.60
56831;BME280;42713;42.676;23.352;2022-11-25T11:57:58;94966.69;;;6.59;61.67
56831;BME280;42713;42.676;23.352;2022-11-25T12:00:31;94932.22;;;6.63;61.45
56831;BME280;42713;42.676;23.352;2022-11-25T12:05:35;94936.31;;;6.78;61.54
56831;BME280;42713;42.676;23.352;2022-11-25T12:11:10;94930.19;;;6.91;60.22
56831;BME280;42713;42.676;23.352;2022-11-25T12:27:46;94942.78;;;7.19;60.40
56831;BME280;42713;42.676;23.352;2022-11-25T12:30:17;94949.66;;;7.32;59.92
56831;BME280;42713;42.676;23.352;2022-11-25T12:32:55;94938.16;;;7.40;58.25
56831;BME280;42713;42.676;23.352;2022-11-25T12:45:41;94933.84;;;7.52;58.46
56831;BME280;42713;42.676;23.352;2022-11-25T12:48:10;94951.50;;;7.50;58.13
56831;BME280;42713;42.676;23.352;2022-11-25T12:53:32;94938.81;;;7.72;57.64
56831;BME280;42713;42.676;23.352;2022-11-25T12:56:04;94937.72;;;7.80;56.98
56831;BME280;42713;42.676;23.352;2022-11-25T13:01:28;94937.66;;;7.87;57.07
56831;BME280;42713;42.676;23.352;2022-11-25T13:12:38;94917.09;;;7.78;56.35
56831;BME280;42713;42.676;23.352;2022-11-25T13:15:31;94947.59;;;8.08;55.78
56831;BME280;42713;42.676;23.352;2022-11-25T13:18:03;94937.16;;;8.08;55.33
56831;BME280;42713;42.676;23.352;2022-11-25T13:20:35;94912.88;;;7.96;55.66
56831;BME280;42713;42.676;23.352;2022-11-25T13:25:30;94925.38;;;8.06;55.41
56831;BME280;42713;42.676;23.352;2022-11-25T13:27:58;94933.19;;;8.06;55.17
56831;BME280;42713;42.676;23.352;2022-11-25T13:32:56;94925.25;;;8.01;55.51
56831;BME280;42713;42.676;23.352;2022-11-25T13:37:51;94952.84;;;7.90;55.48
56831;BME280;42713;42.676;23.352;2022-11-25T13:42:50;94939.44;;;7.86;55.50
56831;BME280;42713;42.676;23.352;2022-11-25T13:45:36;94939.25;;;7.88;55.56
56831;BME280;42713;42.676;23.352;2022-11-25T13:48:14;94937.47;;;8.00;55.18
56831;BME280;42713;42.676;23.352;2022-11-25T13:50:41;94973.34;;;8.05;54.51
56831;BME280;42713;42.676;23.352;2022-11-25T13:53:28;94947.56;;;7.97;54.64
56831;BME280;42713;42.676;23.352;2022-11-25T14:01:37;94939.53;;;7.61;55.71
56831;BME280;42713;42.676;23.352;2022-11-25T14:04:07;94954.75;;;7.45;56.00
56831;BME280;42713;42.676;23.352;2022-11-25T14:10:00;94952.53;;;7.24;57.66
56831;BME280;42713;42.676;23.352;2022-11-25T14:24:10;94964.53;;;6.81;58.94
56831;BME280;42713;42.676;23.352;2022-11-25T14:26:41;94962.31;;;6.84;59.52
56831;BME280;42713;42.676;23.352;2022-11-25T14:29:46;94980.56;;;6.78;59.59
56831;BME280;42713;42.676;23.352;2022-11-25T14:32:23;94978.00;;;6.71;59.26
56831;BME280;42713;42.676;23.352;2022-11-25T14:35:02;94979.41;;;6.74;59.71
56831;BME280;42713;42.676;23.352;2022-11-25T14:37:49;94974.25;;;6.67;59.61
56831;BME280;42713;42.676;23.352;2022-11-25T14:42:48;94981.13;;;6.54;60.92
56831;BME280;42713;42.676;23.352;2022-11-25T14:45:25;94974.78;;;6.44;61.23
56831;BME280;42713;42.676;23.352;2022-11-25T14:47:51;94965.03;;;6.39;61.53
56831;BME280;42713;42.676;23.352;2022-11-25T14:50:17;94979.63;;;6.40;61.71
56831;BME280;42713;42.676;23.352;2022-11-25T14:52:43;94963.16;;;6.46;61.64
56831;BME280;42713;42.676;23.352;2022-11-25T14:55:13;94976.78;;;6.48;61.88
56831;BME280;42713;42.676;23.352;2022-11-25T14:57:47;94976.94;;;6.53;61.54
56831;BME280;42713;42.676;23.352;2022-11-25T15:00:14;94962.94;;;6.48;61.64
56831;BME280;42713;42.676;23.352;2022-11-25T15:03:02;94971.63;;;6.35;61.74
56831;BME280;42713;42.676;23.352;2022-11-25T15:05:33;94971.25;;;6.31;62.52
56831;BME280;42713;42.676;23.352;2022-11-25T15:08:15;94990.84;;;6.34;61.75
56831;BME280;42713;42.676;23.352;2022-11-25T15:10:50;94979.44;;;6.35;62.05
56831;BME280;42713;42.676;23.352;2022-11-25T15:13:32;94977.84;;;6.34;62.15